Time;durP1;ratioP1;P1;durP2;ratioP2;P2;SDS_P1;SDS_P2;PMS_P1;PMS_P2;Temp;Humidity;BMP_temperature;BMP_pressure;BME280_temperature;BME280_humidity;BME280_pressure;Samples;Min_cycle;Max_cycle;Signal;HPM_P1;HPM_P2
2021/11/08 00:00:52;;;;;;;4.17;1.77;;;6.70;99.90;;;;;;5033021;28;20025;-83
2021/11/08 00:03:22;;;;;;;4.17;1.30;;;6.70;99.90;;;;;;5033645;28;20026;-84
2021/11/08 00:05:48;;;;;;;4.03;1.30;;;6.60;99.90;;;;;;5033759;28;20026;-85
2021/11/08 00:08:16;;;;;;;6.90;1.67;;;6.60;99.90;;;;;;5032698;28;20022;-84
2021/11/08 00:10:42;;;;;;;7.43;1.80;;;6.70;99.90;;;;;;5033873;28;20029;-83
2021/11/08 00:13:09;;;;;;;8.57;2.03;;;6.60;99.90;;;;;;5037776;28;20169;-83
2021/11/08 00:18:12;;;;;;;4.57;1.60;;;6.70;99.90;;;;;;5039360;28;20044;-84
2021/11/08 00:20:49;;;;;;;6.07;1.70;;;6.70;99.90;;;;;;5034233;28;20022;-84
2021/11/08 00:23:15;;;;;;;5.90;1.90;;;6.70;99.90;;;;;;5050728;28;20025;-84
2021/11/08 00:25:42;;;;;;;7.80;1.83;;;6.60;99.90;;;;;;5035049;28;20517;-84
2021/11/08 00:28:15;;;;;;;3.17;1.37;;;6.70;99.90;;;;;;5050372;28;20111;-84
2021/11/08 00:30:42;;;;;;;4.77;1.50;;;6.70;99.90;;;;;;5033999;28;20488;-85
2021/11/08 00:33:09;;;;;;;4.90;1.63;;;6.70;99.90;;;;;;5034280;28;20021;-84
2021/11/08 00:35:37;;;;;;;6.33;2.17;;;6.70;99.90;;;;;;5032582;28;20030;-84
2021/11/08 00:38:04;;;;;;;3.33;1.20;;;6.70;99.90;;;;;;5037763;28;20079;-84
2021/11/08 00:40:30;;;;;;;5.80;1.40;;;6.60;99.90;;;;;;5036350;28;20021;-84
2021/11/08 00:42:56;;;;;;;5.03;1.23;;;6.60;99.90;;;;;;5038338;28;20087;-84
2021/11/08 00:45:22;;;;;;;7.17;2.10;;;6.60;99.90;;;;;;5037801;28;20026;-84
2021/11/08 00:47:47;;;;;;;4.07;1.20;;;6.60;99.90;;;;;;5054777;28;20028;-83
2021/11/08 00:50:13;;;;;;;6.70;1.37;;;6.60;99.90;;;;;;5054905;28;20091;-83
2021/11/08 00:52:39;;;;;;;6.50;1.90;;;6.50;99.90;;;;;;5055637;28;20031;-84
2021/11/08 00:55:05;;;;;;;4.10;1.47;;;6.60;99.90;;;;;;5042037;28;20493;-83
2021/11/08 00:57:35;;;;;;;3.77;1.30;;;6.50;99.90;;;;;;5034802;28;20462;-84
2021/11/08 01:00:01;;;;;;;3.53;1.63;;;6.50;99.90;;;;;;5035464;28;20029;-84
2021/11/08 01:02:29;;;;;;;4.43;1.87;;;6.50;99.90;;;;;;5041889;28;20167;-83
2021/11/08 01:04:57;;;;;;;5.73;1.73;;;6.40;99.90;;;;;;5057319;28;20029;-84
2021/11/08 01:07:23;;;;;;;4.83;1.33;;;6.30;99.90;;;;;;5064045;28;20064;-83
2021/11/08 01:09:49;;;;;;;5.40;1.70;;;6.20;99.90;;;;;;5063576;28;20026;-83
2021/11/08 01:12:15;;;;;;;5.63;1.50;;;6.20;99.90;;;;;;5063965;28;20021;-83
2021/11/08 01:14:41;;;;;;;6.40;1.37;;;6.20;99.90;;;;;;5037982;28;20039;-84
2021/11/08 01:17:08;;;;;;;2.67;1.40;;;6.00;99.90;;;;;;5038518;28;20111;-84
2021/11/08 01:19:35;;;;;;;4.87;1.33;;;6.00;99.90;;;;;;5041369;28;20029;-84
2021/11/08 01:22:06;;;;;;;4.50;1.00;;;5.90;99.90;;;;;;5032568;28;20036;-83
2021/11/08 01:24:35;;;;;;;4.00;1.63;;;5.80;99.90;;;;;;5036909;28;20021;-84
2021/11/08 01:27:01;;;;;;;3.63;1.47;;;5.80;99.90;;;;;;5037512;28;20039;-83
2021/11/08 01:29:27;;;;;;;5.03;1.30;;;5.70;99.90;;;;;;5036234;28;20079;-84
2021/11/08 01:31:52;;;;;;;4.53;1.40;;;5.70;99.90;;;;;;5037740;28;20033;-84
2021/11/08 01:34:18;;;;;;;4.90;1.77;;;5.60;99.90;;;;;;5043147;28;20025;-84
2021/11/08 01:36:50;;;;;;;4.60;1.37;;;5.60;99.90;;;;;;5071189;28;20021;-84
2021/11/08 01:39:20;;;;;;;3.50;1.23;;;5.50;99.90;;;;;;5055665;28;20029;-84
2021/11/08 01:41:46;;;;;;;5.90;1.80;;;5.40;99.90;;;;;;5049862;28;20026;-84
2021/11/08 01:44:14;;;;;;;3.20;1.10;;;5.40;99.90;;;;;;5031239;28;20030;-83
2021/11/08 01:46:40;;;;;;;6.30;1.53;;;5.40;99.90;;;;;;5045285;28;20042;-85
2021/11/08 01:49:06;;;;;;;5.97;1.63;;;5.30;99.90;;;;;;5053428;28;20028;-83
2021/11/08 01:51:35;;;;;;;5.60;1.50;;;5.30;99.90;;;;;;5053851;28;20234;-83
2021/11/08 01:54:03;;;;;;;6.10;1.50;;;5.30;99.90;;;;;;5051166;28;20541;-84
2021/11/08 01:56:29;;;;;;;6.67;1.87;;;5.20;99.90;;;;;;5037772;28;20136;-84
2021/11/08 01:58:55;;;;;;;3.90;1.83;;;5.20;99.90;;;;;;5040629;28;20049;-84
2021/11/08 02:01:21;;;;;;;5.73;1.83;;;5.20;99.90;;;;;;5035910;28;20076;-84
2021/11/08 02:03:47;;;;;;;7.63;2.10;;;5.20;99.90;;;;;;5056242;28;20477;-85
2021/11/08 02:06:13;;;;;;;3.30;1.60;;;5.10;99.90;;;;;;5056293;28;20025;-85
2021/11/08 02:08:40;;;;;;;4.57;1.40;;;5.10;99.90;;;;;;5055574;28;20017;-83
2021/11/08 02:11:06;;;;;;;5.60;1.90;;;5.10;99.90;;;;;;5053572;28;20371;-84
2021/11/08 02:13:32;;;;;;;6.67;2.00;;;5.10;99.90;;;;;;5052226;28;20030;-85
2021/11/08 02:15:58;;;;;;;7.83;1.80;;;5.00;99.90;;;;;;5034665;28;20036;-84
2021/11/08 02:18:24;;;;;;;5.03;1.60;;;5.00;99.90;;;;;;5035409;28;20083;-85
2021/11/08 02:20:52;;;;;;;5.33;1.70;;;5.00;99.90;;;;;;5035226;28;20505;-84
2021/11/08 02:23:19;;;;;;;4.27;1.60;;;4.90;99.90;;;;;;5051025;28;20075;-85
2021/11/08 02:25:47;;;;;;;3.07;1.40;;;4.90;99.90;;;;;;5035062;28;20026;-84
2021/11/08 02:28:13;;;;;;;4.47;1.90;;;4.90;99.90;;;;;;5051453;28;20022;-84
2021/11/08 02:30:40;;;;;;;9.10;2.03;;;4.90;99.90;;;;;;5035454;28;20021;-83
2021/11/08 02:33:08;;;;;;;4.97;1.97;;;4.80;99.90;;;;;;5035037;28;20057;-83
2021/11/08 02:35:36;;;;;;;5.10;1.60;;;4.80;99.90;;;;;;5035495;28;20491;-84
2021/11/08 02:38:02;;;;;;;5.27;1.83;;;4.70;99.90;;;;;;5036156;28;20030;-85
2021/11/08 02:40:29;;;;;;;4.10;1.67;;;4.70;99.90;;;;;;5034230;28;20459;-83
2021/11/08 02:43:01;;;;;;;6.77;1.60;;;4.70;99.90;;;;;;5050652;28;20551;-83
2021/11/08 02:45:29;;;;;;;4.57;1.88;;;4.60;99.90;;;;;;5052288;28;20029;-84
2021/11/08 02:47:55;;;;;;;5.33;2.27;;;4.60;99.90;;;;;;5054574;28;20021;-83
2021/11/08 02:50:24;;;;;;;3.67;1.70;;;4.60;99.90;;;;;;5052713;28;20048;-84
2021/11/08 02:52:51;;;;;;;7.80;1.80;;;4.60;99.90;;;;;;5054360;28;20481;-83
2021/11/08 02:55:22;;;;;;;3.63;1.40;;;4.50;99.90;;;;;;5037388;28;20390;-83
2021/11/08 02:57:50;;;;;;;3.90;1.60;;;4.50;99.90;;;;;;5051446;28;20033;-85
2021/11/08 03:00:16;;;;;;;5.37;1.70;;;4.50;99.90;;;;;;5034216;28;20061;-83
2021/11/08 03:02:42;;;;;;;7.87;2.10;;;4.50;99.90;;;;;;5037473;28;20505;-83
2021/11/08 03:05:13;;;;;;;4.53;1.83;;;4.50;99.90;;;;;;5052085;28;20026;-83
2021/11/08 03:07:38;;;;;;;6.20;2.00;;;4.50;99.90;;;;;;5037833;28;20402;-84
2021/11/08 03:10:11;;;;;;;5.07;1.97;;;4.40;99.90;;;;;;5042369;28;20034;-83
2021/11/08 03:12:38;;;;;;;6.97;2.10;;;4.40;99.90;;;;;;5036823;28;20498;-84
2021/11/08 03:15:12;;;;;;;9.13;2.47;;;4.40;99.90;;;;;;5036904;28;20037;-84
2021/11/08 03:17:47;;;;;;;5.47;2.63;;;4.40;99.90;;;;;;5038176;28;20112;-83
2021/11/08 03:20:17;;;;;;;7.40;2.30;;;4.40;99.90;;;;;;5036126;28;20033;-85
2021/11/08 03:22:53;;;;;;;6.77;2.10;;;4.40;99.90;;;;;;5037748;28;20083;-84
2021/11/08 03:27:54;;;;;;;8.37;2.37;;;4.40;99.90;;;;;;5054979;28;20037;-82
2021/11/08 03:30:25;;;;;;;7.37;2.37;;;4.30;99.90;;;;;;5054698;28;20021;-81
2021/11/08 03:32:52;;;;;;;5.67;2.10;;;4.30;99.90;;;;;;5055980;28;20040;-82
2021/11/08 03:35:21;;;;;;;8.43;2.27;;;4.30;99.90;;;;;;5055521;28;20103;-82
2021/11/08 03:37:46;;;;;;;5.90;2.17;;;4.30;99.90;;;;;;5049931;28;20028;-83
2021/11/08 03:40:22;;;;;;;8.47;2.47;;;4.30;99.90;;;;;;5035853;28;20033;-84
2021/11/08 03:42:49;;;;;;;6.27;2.10;;;4.30;99.90;;;;;;5040117;28;20120;-83
2021/11/08 03:45:16;;;;;;;6.80;2.10;;;4.30;99.90;;;;;;5043048;28;20032;-83
2021/11/08 03:47:42;;;;;;;5.07;2.30;;;4.20;99.90;;;;;;5053670;28;20025;-84
2021/11/08 03:50:09;;;;;;;7.37;2.37;;;4.20;99.90;;;;;;5052480;28;20036;-84
2021/11/08 03:52:37;;;;;;;6.10;2.37;;;4.20;99.90;;;;;;5049067;28;20040;-84
2021/11/08 03:55:08;;;;;;;4.90;2.20;;;4.20;99.90;;;;;;5035012;28;20033;-84
2021/11/08 03:57:34;;;;;;;7.03;2.07;;;4.20;99.90;;;;;;5032831;28;20075;-84
2021/11/08 04:00:00;;;;;;;7.80;2.40;;;4.10;99.90;;;;;;5034478;28;20033;-84
2021/11/08 04:02:26;;;;;;;6.00;2.10;;;4.10;99.90;;;;;;5051276;28;20091;-84
2021/11/08 04:04:52;;;;;;;7.37;1.83;;;4.10;99.90;;;;;;5034315;28;20397;-84
2021/11/08 04:07:17;;;;;;;6.30;2.00;;;4.10;99.90;;;;;;5035645;28;20034;-83
2021/11/08 04:09:44;;;;;;;5.87;2.13;;;4.10;99.90;;;;;;5035742;28;20034;-83
2021/11/08 04:12:10;;;;;;;7.80;1.90;;;4.10;99.90;;;;;;5039332;28;20033;-83
2021/11/08 04:14:38;;;;;;;8.40;2.60;;;4.10;99.90;;;;;;5040012;28;20026;-83
2021/11/08 04:17:05;;;;;;;6.17;2.40;;;4.10;99.90;;;;;;5039066;28;20033;-84
2021/11/08 04:19:32;;;;;;;6.33;2.40;;;4.10;99.90;;;;;;5057349;28;20128;-83
2021/11/08 04:22:00;;;;;;;5.10;2.60;;;4.10;99.90;;;;;;5041854;28;20025;-82
2021/11/08 04:24:26;;;;;;;6.73;1.97;;;4.00;99.90;;;;;;5042484;28;20025;-83
2021/11/08 04:26:52;;;;;;;7.07;1.93;;;4.00;99.90;;;;;;5042083;28;20021;-83
2021/11/08 04:29:18;;;;;;;7.07;2.07;;;4.00;99.90;;;;;;5040822;28;20030;-82
2021/11/08 04:31:44;;;;;;;6.33;2.10;;;4.00;99.90;;;;;;5040878;28;20025;-82
2021/11/08 04:36:54;;;;;;;7.07;2.03;;;3.90;99.90;;;;;;5051638;28;20040;-83
2021/11/08 04:42:30;;;;;;;6.20;2.30;;;3.90;99.90;;;;;;5040936;28;20065;-83
2021/11/08 04:50:31;;;;;;;7.70;2.10;;;3.90;99.90;;;;;;5060438;28;20036;-82
2021/11/08 04:56:19;;;;;;;7.17;2.30;;;3.90;99.90;;;;;;5059386;28;20040;-82
2021/11/08 05:30:24;;;;;;;13.47;2.97;;;3.80;99.90;;;;;;5068773;28;20039;-81
2021/11/08 05:32:50;;;;;;;12.50;2.97;;;3.90;99.90;;;;;;5059739;28;20021;-82
2021/11/08 05:35:16;;;;;;;4.53;2.13;;;3.90;99.90;;;;;;5052295;28;20021;-83
2021/11/08 05:37:45;;;;;;;5.87;2.30;;;3.90;99.90;;;;;;5063920;28;20009;-83
2021/11/08 05:40:25;;;;;;;7.43;2.40;;;4.00;99.90;;;;;;5058366;28;20103;-82
2021/11/08 05:42:51;;;;;;;5.27;2.30;;;3.90;99.90;;;;;;5057723;28;20025;-83
2021/11/08 05:45:17;;;;;;;6.77;2.87;;;4.00;99.90;;;;;;5058598;28;20426;-83
2021/11/08 05:47:44;;;;;;;7.23;3.10;;;4.00;99.90;;;;;;5036993;28;20133;-82
2021/11/08 05:50:12;;;;;;;6.80;2.67;;;4.00;99.90;;;;;;5058208;28;20075;-83
2021/11/08 05:52:38;;;;;;;6.83;2.63;;;4.00;99.90;;;;;;5058527;28;20017;-82
2021/11/08 05:55:08;;;;;;;9.00;2.80;;;4.00;99.90;;;;;;5060411;28;20053;-83
2021/11/08 06:49:36;;;;;;;4.40;1.63;;;4.10;99.90;;;;;;5038212;28;20035;-81
2021/11/08 06:52:03;;;;;;;9.07;2.47;;;4.10;99.90;;;;;;5057991;28;20478;-83
2021/11/08 06:54:30;;;;;;;5.97;1.90;;;4.10;99.90;;;;;;5051630;28;20033;-83
2021/11/08 06:57:06;;;;;;;7.47;2.03;;;4.10;99.90;;;;;;5048153;28;20036;-83
2021/11/08 06:59:32;;;;;;;8.83;2.00;;;4.20;99.90;;;;;;5039152;28;20021;-81
2021/11/08 07:01:58;;;;;;;7.90;2.57;;;4.20;99.90;;;;;;5045539;28;20029;-82
2021/11/08 07:04:25;;;;;;;7.33;2.13;;;4.20;99.90;;;;;;5054821;28;20035;-83
2021/11/08 07:06:51;;;;;;;9.37;1.93;;;4.30;99.90;;;;;;5058661;28;20081;-81
2021/11/08 07:09:17;;;;;;;5.70;2.00;;;4.20;99.90;;;;;;5052121;28;20048;-83
2021/11/08 07:11:43;;;;;;;4.83;2.20;;;4.30;99.90;;;;;;5037603;28;20087;-83
2021/11/08 07:14:10;;;;;;;8.00;2.47;;;4.30;99.90;;;;;;5054472;28;20037;-83
2021/11/08 07:16:38;;;;;;;7.93;2.87;;;4.30;99.90;;;;;;5038221;28;20060;-82
2021/11/08 07:19:04;;;;;;;8.60;2.60;;;4.40;99.90;;;;;;5056286;28;20405;-82
2021/11/08 07:21:30;;;;;;;6.83;2.43;;;4.40;99.90;;;;;;5038440;28;20075;-82
2021/11/08 07:23:55;;;;;;;4.03;1.80;;;4.40;99.90;;;;;;5069512;28;20030;-83
2021/11/08 07:26:21;;;;;;;6.27;2.17;;;4.50;99.90;;;;;;5053953;28;20229;-81
2021/11/08 07:28:47;;;;;;;6.37;2.20;;;4.50;99.90;;;;;;5058567;28;20044;-82
2021/11/08 07:31:13;;;;;;;5.60;2.13;;;4.50;99.90;;;;;;5058040;28;20464;-83
2021/11/08 07:33:39;;;;;;;4.50;1.90;;;4.60;99.90;;;;;;5055596;28;20057;-82
2021/11/08 07:36:06;;;;;;;7.47;2.20;;;4.60;99.90;;;;;;5040008;28;20041;-82
2021/11/08 07:38:32;;;;;;;8.03;2.37;;;4.70;99.90;;;;;;5056272;28;20025;-83
2021/11/08 07:41:02;;;;;;;8.87;2.53;;;4.70;99.90;;;;;;5054124;28;20040;-83
2021/11/08 07:43:28;;;;;;;8.20;2.37;;;4.70;99.90;;;;;;5041163;28;20467;-83
2021/11/08 07:45:53;;;;;;;10.57;2.50;;;4.80;99.90;;;;;;5044803;28;20139;-83
2021/11/08 07:48:20;;;;;;;7.77;2.33;;;4.80;99.90;;;;;;5062168;28;20057;-82
2021/11/08 07:50:47;;;;;;;6.53;2.67;;;4.80;99.90;;;;;;5060260;28;20043;-83
2021/11/08 07:53:13;;;;;;;7.03;2.27;;;4.90;99.90;;;;;;5049614;28;20053;-83
2021/11/08 07:55:39;;;;;;;6.87;2.10;;;4.90;99.90;;;;;;5045063;28;20652;-83
2021/11/08 07:58:05;;;;;;;4.60;2.03;;;5.00;99.90;;;;;;5055904;28;20072;-83
2021/11/08 08:00:37;;;;;;;6.73;2.40;;;5.00;99.90;;;;;;5046486;28;20037;-81
2021/11/08 08:03:03;;;;;;;4.82;1.90;;;5.00;99.90;;;;;;5060255;28;20040;-83
2021/11/08 08:05:30;;;;;;;5.93;1.90;;;5.00;99.90;;;;;;5060112;28;20029;-82
2021/11/08 08:07:56;;;;;;;5.73;2.30;;;5.10;99.90;;;;;;5061631;28;20029;-82
2021/11/08 08:10:22;;;;;;;9.90;2.47;;;5.10;99.90;;;;;;5042366;28;20160;-82
2021/11/08 08:12:48;;;;;;;6.87;2.60;;;5.20;99.90;;;;;;5037513;28;20091;-82
2021/11/08 08:15:15;;;;;;;6.87;2.43;;;5.20;99.90;;;;;;5037954;28;20022;-83
2021/11/08 08:17:40;;;;;;;10.40;3.00;;;5.30;99.90;;;;;;5037759;28;20025;-83
2021/11/08 08:20:17;;;;;;;7.00;2.30;;;5.40;99.90;;;;;;5070058;23;20067;-88
2021/11/08 08:22:42;;;;;;;7.90;2.23;;;5.50;99.90;;;;;;5031601;28;20518;-88
2021/11/08 08:25:08;;;;;;;7.00;2.50;;;5.50;99.90;;;;;;5040816;28;20021;-88
2021/11/08 08:27:35;;;;;;;6.37;2.30;;;5.50;99.90;;;;;;5050230;28;20032;-87
2021/11/08 08:30:01;;;;;;;5.80;1.43;;;5.60;99.90;;;;;;5059527;28;20022;-88
2021/11/08 08:32:26;;;;;;;9.37;2.40;;;5.70;99.90;;;;;;5049026;28;20036;-89
2021/11/08 08:34:52;;;;;;;7.60;2.13;;;5.70;99.90;;;;;;5049743;28;20028;-87
2021/11/08 08:37:18;;;;;;;7.37;1.60;;;5.80;99.90;;;;;;5048711;28;20017;-88
2021/11/08 08:39:44;;;;;;;5.60;2.17;;;5.90;99.90;;;;;;5034046;28;20017;-88
2021/11/08 08:42:10;;;;;;;9.07;1.90;;;6.10;99.90;;;;;;5030447;28;20083;-87
2021/11/08 08:44:36;;;;;;;7.73;1.30;;;6.00;99.90;;;;;;5028681;28;20401;-88
2021/11/08 08:47:02;;;;;;;7.00;1.83;;;6.10;99.90;;;;;;5043281;28;20027;-88
2021/11/08 08:49:28;;;;;;;5.70;1.37;;;6.10;99.90;;;;;;5044336;28;20116;-88
2021/11/08 08:51:55;;;;;;;7.47;1.30;;;6.10;99.90;;;;;;5029686;28;20394;-88
2021/11/08 14:23:11;;;;;;;2.35;0.60;;;11.50;99.90;;;;;;5169694;23;20045;-86
2021/11/08 14:25:37;;;;;;;4.82;0.93;;;11.70;99.90;;;;;;5079188;28;20511;-83
2021/11/08 14:28:03;;;;;;;1.90;0.65;;;11.60;99.90;;;;;;5073758;28;20056;-86
2021/11/08 14:30:30;;;;;;;4.00;0.80;;;11.30;99.90;;;;;;5062292;28;20028;-86
2021/11/08 14:32:58;;;;;;;3.05;0.60;;;10.80;99.90;;;;;;5089270;28;20025;-85
2021/11/08 14:35:28;;;;;;;3.08;0.63;;;10.50;99.90;;;;;;5067774;28;20024;-85
2021/11/08 14:38:10;;;;;;;3.63;0.63;;;10.10;99.90;;;;;;5048425;28;20505;-84
2021/11/08 14:40:41;;;;;;;2.88;0.90;;;9.80;99.90;;;;;;5040259;28;20382;-85
2021/11/08 14:43:22;;;;;;;4.88;1.08;;;9.60;99.90;;;;;;5070175;28;20079;-85
2021/11/08 14:46:01;;;;;;;4.78;1.15;;;9.60;99.90;;;;;;5046214;28;20804;-85
2021/11/08 14:48:29;;;;;;;2.80;0.70;;;9.70;99.90;;;;;;5055000;28;20025;-87
2021/11/08 14:51:06;;;;;;;5.18;0.90;;;9.80;99.90;;;;;;5055132;28;20028;-86
2021/11/08 14:53:35;;;;;;;4.18;0.60;;;10.00;99.90;;;;;;5038128;28;20029;-86
2021/11/08 14:56:02;;;;;;;3.03;0.70;;;10.00;99.90;;;;;;5037795;28;20178;-85
2021/11/08 14:58:28;;;;;;;2.63;0.73;;;10.10;99.90;;;;;;5042109;28;20032;-84
2021/11/08 15:00:54;;;;;;;3.03;0.70;;;10.10;99.90;;;;;;5062849;28;20406;-85
2021/11/08 15:03:22;;;;;;;4.25;0.70;;;10.00;99.90;;;;;;5046912;28;20506;-86
2021/11/08 15:05:49;;;;;;;4.82;1.17;;;9.90;99.90;;;;;;5041722;28;20079;-86
2021/11/08 15:08:18;;;;;;;5.82;0.98;;;9.80;99.90;;;;;;5037166;28;20086;-84
2021/11/08 15:10:56;;;;;;;4.88;1.30;;;9.60;99.90;;;;;;5044004;28;20025;-86
2021/11/08 15:13:24;;;;;;;4.07;0.88;;;9.30;99.90;;;;;;5050510;28;20037;-86
2021/11/08 15:15:52;;;;;;;1.77;0.50;;;9.10;99.90;;;;;;5062758;28;20044;-87
2021/11/08 15:18:22;;;;;;;3.35;0.82;;;8.90;99.90;;;;;;5071195;28;20040;-87
2021/11/08 15:20:58;;;;;;;4.53;1.40;;;8.70;99.90;;;;;;5056619;28;20499;-87
2021/11/08 15:23:38;;;;;;;2.83;0.90;;;8.50;99.90;;;;;;5062157;28;20037;-87
2021/11/08 15:26:14;;;;;;;2.92;0.95;;;8.40;99.90;;;;;;5047516;28;20458;-87
2021/11/08 15:28:46;;;;;;;4.87;1.07;;;8.30;99.90;;;;;;5060704;28;20028;-87
2021/11/08 15:31:13;;;;;;;;;;;8.20;99.90;;;;;;5055017;28;20060;-87
2021/11/08 15:34:03;;;;;;;5.03;1.13;;;8.10;99.90;;;;;;5039804;28;19904;-87
2021/11/08 15:36:31;;;;;;;3.87;1.20;;;8.10;99.90;;;;;;5045774;28;20029;-87
2021/11/08 15:39:02;;;;;;;4.30;1.40;;;8.00;99.90;;;;;;5044381;28;20104;-88
2021/11/08 15:41:29;;;;;;;5.30;1.30;;;7.90;99.90;;;;;;5055515;28;20040;-86
2021/11/08 15:43:57;;;;;;;7.83;1.17;;;7.80;99.90;;;;;;5051144;28;20032;-86
2021/11/08 15:46:23;;;;;;;3.63;1.10;;;7.80;99.90;;;;;;5060484;28;20033;-87
2021/11/08 15:48:51;;;;;;;3.53;1.07;;;7.70;99.90;;;;;;5044952;28;20021;-87
2021/11/08 15:51:19;;;;;;;5.83;1.20;;;7.60;99.90;;;;;;5045727;28;20030;-87
2021/11/08 15:53:45;;;;;;;3.77;1.10;;;7.60;99.90;;;;;;5050019;28;20025;-87
2021/11/08 15:56:11;;;;;;;4.63;1.20;;;7.60;99.90;;;;;;5060874;28;20664;-87
2021/11/08 15:58:37;;;;;;;6.90;1.43;;;7.50;99.90;;;;;;5067936;28;20031;-87
2021/11/08 16:01:07;;;;;;;4.63;1.10;;;7.40;99.90;;;;;;5043707;28;20029;-87
2021/11/08 16:03:33;;;;;;;2.83;1.10;;;7.40;99.90;;;;;;5055588;28;20025;-87
2021/11/08 16:05:59;;;;;;;4.63;1.03;;;7.30;99.90;;;;;;5048842;28;20013;-87
2021/11/08 16:08:25;;;;;;;4.90;1.67;;;7.30;99.90;;;;;;5043028;28;20052;-86
2021/11/08 16:10:50;;;;;;;3.47;1.23;;;7.20;99.90;;;;;;5048935;28;20100;-86
2021/11/08 16:13:17;;;;;;;4.83;1.63;;;7.20;99.90;;;;;;5048673;28;20040;-86
2021/11/08 16:15:48;;;;;;;5.57;1.57;;;7.20;99.90;;;;;;5056286;28;20021;-87
2021/11/08 16:18:15;;;;;;;6.00;1.97;;;7.10;99.90;;;;;;5054071;28;20025;-87
2021/11/08 16:20:43;;;;;;;5.03;1.67;;;7.10;99.90;;;;;;5058753;28;20025;-86
2021/11/08 16:23:10;;;;;;;5.67;1.57;;;7.00;99.90;;;;;;5046670;28;20043;-87
2021/11/08 16:25:39;;;;;;;6.57;1.80;;;7.00;99.90;;;;;;5070462;28;20473;-86
2021/11/08 16:28:05;;;;;;;3.63;1.70;;;7.00;99.90;;;;;;5063363;28;20025;-86
2021/11/08 16:30:31;;;;;;;9.17;1.83;;;6.90;99.90;;;;;;5049965;28;20040;-87
2021/11/08 16:32:57;;;;;;;9.30;1.93;;;6.80;99.90;;;;;;5058846;28;20025;-86
2021/11/08 16:35:25;;;;;;;8.53;2.40;;;6.80;99.90;;;;;;5042699;28;20021;-86
2021/11/08 16:37:51;;;;;;;6.20;1.50;;;6.70;99.90;;;;;;5062838;28;20528;-86
2021/11/08 16:40:18;;;;;;;5.70;2.03;;;6.70;99.90;;;;;;5059663;28;20025;-86
2021/11/08 16:42:49;;;;;;;6.97;2.00;;;6.60;99.90;;;;;;5046827;28;20143;-86
2021/11/08 16:45:17;;;;;;;7.57;2.20;;;6.60;99.90;;;;;;5047298;28;20092;-84
2021/11/08 16:47:43;;;;;;;5.73;1.70;;;6.50;99.90;;;;;;5048239;28;20024;-84
2021/11/08 16:50:09;;;;;;;9.17;2.33;;;6.40;99.90;;;;;;5048866;28;20029;-85
2021/11/08 16:52:35;;;;;;;8.20;2.23;;;6.40;99.90;;;;;;5041726;28;20545;-86
2021/11/08 16:55:05;;;;;;;5.73;1.93;;;6.30;99.90;;;;;;5061766;28;20033;-86
2021/11/08 16:57:31;;;;;;;7.00;1.83;;;6.30;99.90;;;;;;5045948;28;20045;-85
2021/11/08 16:59:57;;;;;;;6.10;2.10;;;6.30;99.90;;;;;;5058539;28;20033;-85
2021/11/08 17:02:25;;;;;;;3.60;1.97;;;6.20;99.90;;;;;;5045647;28;20512;-86
2021/11/08 17:04:52;;;;;;;6.80;2.30;;;6.20;99.90;;;;;;5063181;28;20106;-85
2021/11/08 17:07:21;;;;;;;8.03;2.53;;;6.10;99.90;;;;;;5043851;28;20078;-86
2021/11/08 17:10:02;;;;;;;7.83;2.63;;;6.10;99.90;;;;;;5048549;28;20024;-86
2021/11/08 17:15:12;;;;;;;6.87;2.20;;;6.10;99.90;;;;;;5046230;28;20029;-85
2021/11/08 17:17:39;;;;;;;10.07;2.77;;;6.10;99.90;;;;;;5052838;28;20029;-85
2021/11/08 17:20:06;;;;;;;8.43;2.57;;;6.10;99.90;;;;;;5049439;28;20017;-84
2021/11/08 17:22:36;;;;;;;6.93;2.93;;;6.10;99.90;;;;;;5054978;28;20040;-85
2021/11/08 17:25:06;;;;;;;7.80;2.70;;;6.10;99.90;;;;;;5051464;28;20039;-84
2021/11/08 17:27:33;;;;;;;8.03;2.47;;;6.10;99.90;;;;;;5064750;28;20036;-87
2021/11/08 17:29:59;;;;;;;8.03;2.13;;;6.10;99.90;;;;;;5055149;28;20045;-85
2021/11/08 17:32:26;;;;;;;9.07;2.40;;;6.10;99.90;;;;;;5057750;28;20017;-85
2021/11/08 17:34:52;;;;;;;6.27;2.07;;;6.10;99.90;;;;;;5055658;28;20482;-85
2021/11/08 17:37:18;;;;;;;7.77;2.70;;;6.10;99.90;;;;;;5046462;28;20068;-84
2021/11/08 17:39:47;;;;;;;9.50;3.13;;;6.10;99.90;;;;;;5081647;28;20040;-86
2021/11/08 17:42:13;;;;;;;7.73;3.30;;;6.20;99.90;;;;;;5075169;28;20024;-85
2021/11/08 17:44:40;;;;;;;6.77;2.87;;;6.10;99.90;;;;;;5073506;28;20377;-85
2021/11/08 17:47:30;;;;;;;8.63;3.50;;;6.10;99.90;;;;;;5063417;28;20029;-85
2021/11/08 17:49:57;;;;;;;6.33;2.40;;;6.10;99.90;;;;;;5052603;28;20057;-84
2021/11/08 17:52:23;;;;;;;6.53;3.00;;;6.10;99.90;;;;;;5055679;28;20044;-85
2021/11/08 17:54:48;;;;;;;10.97;3.50;;;6.10;99.90;;;;;;5054528;28;20438;-85
2021/11/08 17:57:14;;;;;;;7.43;3.50;;;6.00;99.90;;;;;;5059153;28;20147;-84
2021/11/08 17:59:39;;;;;;;10.30;4.27;;;6.00;99.90;;;;;;5053502;28;20104;-85
2021/11/08 18:02:10;;;;;;;9.37;3.40;;;5.90;99.90;;;;;;5055881;28;20606;-85
2021/11/08 18:04:36;;;;;;;8.90;3.53;;;5.90;99.90;;;;;;5061999;28;20030;-84
2021/11/08 18:07:02;;;;;;;5.50;2.40;;;5.90;99.90;;;;;;5060945;28;20023;-84
2021/11/08 18:09:28;;;;;;;6.00;2.60;;;5.90;99.90;;;;;;5062614;28;20026;-85
2021/11/08 18:11:54;;;;;;;6.67;2.30;;;5.90;99.90;;;;;;5055323;28;20101;-85
2021/11/08 18:14:20;;;;;;;6.07;2.47;;;5.80;99.90;;;;;;5046670;28;20029;-84
2021/11/08 18:16:47;;;;;;;6.57;2.30;;;5.80;99.90;;;;;;5059686;28;20035;-85
2021/11/08 18:19:13;;;;;;;6.03;2.13;;;5.80;99.90;;;;;;5048919;28;20018;-84
2021/11/08 18:24:20;;;;;;;10.57;2.45;;;5.70;99.90;;;;;;5037333;28;20394;-85
2021/11/08 18:29:14;;;;;;;8.30;2.50;;;5.70;99.90;;;;;;5041066;28;20028;-84
2021/11/08 18:31:40;;;;;;;8.67;2.50;;;5.60;99.90;;;;;;5041499;28;20020;-85
2021/11/08 18:34:06;;;;;;;9.87;2.53;;;5.60;99.90;;;;;;5043368;28;20077;-85
2021/11/08 18:36:31;;;;;;;6.80;2.53;;;5.60;99.90;;;;;;5055384;28;20032;-84
2021/11/08 18:38:58;;;;;;;7.13;2.27;;;5.60;99.90;;;;;;5050910;28;20021;-83
2021/11/08 18:41:28;;;;;;;8.33;2.57;;;5.60;99.90;;;;;;5049466;28;20029;-84
2021/11/08 18:43:54;;;;;;;6.40;3.37;;;5.60;99.90;;;;;;5055347;28;20043;-83
2021/11/08 18:46:21;;;;;;;4.63;2.33;;;5.50;99.90;;;;;;5049133;28;20032;-86
2021/11/08 18:48:48;;;;;;;9.70;3.93;;;5.50;99.90;;;;;;5059991;28;20018;-84
2021/11/08 18:51:14;;;;;;;9.77;4.10;;;5.50;99.90;;;;;;5038444;28;20017;-84
2021/11/08 18:53:41;;;;;;;8.63;3.50;;;5.50;99.90;;;;;;5061053;28;20045;-84
2021/11/08 18:56:09;;;;;;;11.90;3.27;;;5.40;99.90;;;;;;5055217;28;20119;-84
2021/11/08 18:58:35;;;;;;;10.40;2.63;;;5.40;99.90;;;;;;5058216;28;20028;-84
2021/11/08 19:01:02;;;;;;;9.30;2.97;;;5.30;99.90;;;;;;5071141;28;20029;-85
2021/11/08 19:03:33;;;;;;;5.57;2.60;;;5.20;99.90;;;;;;5055744;28;20037;-84
2021/11/08 19:06:11;;;;;;;5.47;2.43;;;5.20;99.90;;;;;;5049855;28;20029;-81
2021/11/08 19:08:51;;;;;;;7.70;2.57;;;5.20;99.90;;;;;;5049333;28;20024;-84
2021/11/08 19:11:22;;;;;;;8.57;2.90;;;5.10;99.90;;;;;;5048273;28;20041;-84
2021/11/08 19:13:48;;;;;;;6.97;2.67;;;5.10;99.90;;;;;;5046488;28;20038;-85
2021/11/08 19:16:14;;;;;;;7.30;2.60;;;5.10;99.90;;;;;;5052157;28;20024;-85
2021/11/08 19:18:40;;;;;;;6.50;2.93;;;5.10;99.90;;;;;;5057785;28;20052;-85
2021/11/08 19:21:07;;;;;;;6.23;2.67;;;5.10;99.90;;;;;;5057471;28;20025;-85
2021/11/08 19:23:33;;;;;;;6.87;2.80;;;5.00;99.90;;;;;;5057505;28;20025;-86
2021/11/08 19:25:59;;;;;;;6.87;2.90;;;5.00;99.90;;;;;;5054992;28;20032;-86
2021/11/08 19:28:26;;;;;;;13.30;2.73;;;5.00;99.90;;;;;;5048175;28;20382;-87
2021/11/08 19:30:56;;;;;;;6.13;2.67;;;5.10;99.90;;;;;;5053004;28;20029;-85
2021/11/08 19:39:05;;;;;;;9.63;3.30;;;5.00;99.90;;;;;;5043959;28;20070;-87
2021/11/08 19:41:32;;;;;;;10.53;2.67;;;4.90;99.90;;;;;;5044393;28;20119;-87
2021/11/08 19:43:58;;;;;;;7.93;3.17;;;4.90;99.90;;;;;;5048714;28;20033;-86
2021/11/08 19:46:24;;;;;;;7.80;3.20;;;4.90;99.90;;;;;;5052816;28;20084;-86
2021/11/08 19:48:50;;;;;;;12.10;4.00;;;4.80;99.90;;;;;;5054216;28;20037;-85
2021/11/08 19:51:18;;;;;;;7.77;3.27;;;4.80;99.90;;;;;;5054806;28;20025;-86
2021/11/08 19:53:46;;;;;;;8.43;2.70;;;4.80;99.90;;;;;;5065658;28;20029;-85
2021/11/08 19:56:14;;;;;;;7.93;3.13;;;4.70;99.90;;;;;;5065051;28;20060;-85
2021/11/08 19:58:41;;;;;;;9.70;3.30;;;4.70;99.90;;;;;;5076439;28;20044;-86
2021/11/08 20:01:07;;;;;;;11.03;3.63;;;4.70;99.90;;;;;;5057015;28;20134;-85
2021/11/08 20:03:33;;;;;;;10.33;3.30;;;4.60;99.90;;;;;;5072602;28;20043;-86
2021/11/08 20:05:59;;;;;;;11.00;2.50;;;4.60;99.90;;;;;;5051980;28;20021;-86
2021/11/08 20:08:25;;;;;;;10.87;2.73;;;4.60;99.90;;;;;;5054163;28;20028;-86
2021/11/08 20:10:55;;;;;;;9.33;2.67;;;4.60;99.90;;;;;;5041420;28;20683;-86
2021/11/08 20:15:57;;;;;;;7.63;2.40;;;4.60;99.90;;;;;;5051076;28;20029;-86
2021/11/08 20:18:23;;;;;;;7.40;2.80;;;4.60;99.90;;;;;;5061905;28;20045;-86
2021/11/08 20:20:54;;;;;;;7.93;2.33;;;4.60;99.90;;;;;;5044652;28;20108;-85
2021/11/08 20:23:22;;;;;;;7.53;2.63;;;4.60;99.90;;;;;;5045278;28;20060;-86
2021/11/08 20:25:50;;;;;;;9.37;2.70;;;4.60;99.90;;;;;;5056000;28;20026;-86